Time;durP1;ratioP1;P1;durP2;ratioP2;P2;SDS_P1;SDS_P2;PMS_P1;PMS_P2;Temp;Humidity;BMP_temperature;BMP_pressure;BME280_temperature;BME280_humidity;BME280_pressure;Samples;Min_cycle;Max_cycle;Signal;HPM_P1;HPM_P2
2021/08/19 00:02:12;;;;;;;7.28;2.70;;;;;;;15.41;67.05;99421.38;257164;1104;115108;-68
2021/08/19 00:07:16;;;;;;;2.23;2.03;;;;;;;15.37;67.18;99425.69;257179;1104;114914;-68
2021/08/19 00:12:19;;;;;;;3.90;1.70;;;;;;;15.34;67.37;99416.30;257128;1104;114916;-68
2021/08/19 00:17:21;;;;;;;3.05;2.00;;;;;;;15.23;67.60;99414.73;257243;1104;115124;-67
2021/08/19 00:22:25;;;;;;;6.08;2.30;;;;;;;15.18;68.02;99419.31;256805;1104;114985;-67
2021/08/19 00:27:30;;;;;;;2.40;1.85;;;;;;;15.18;67.70;99408.57;255296;1104;115288;-67
2021/08/19 00:32:34;;;;;;;4.43;1.88;;;;;;;15.14;68.69;99414.48;254262;1104;116083;-66
2021/08/19 00:37:37;;;;;;;4.50;2.20;;;;;;;15.19;68.38;99416.35;255771;1104;114926;-67
2021/08/19 00:42:42;;;;;;;2.03;1.93;;;;;;;15.19;68.59;99416.35;254788;1104;114925;-66
2021/08/19 00:47:46;;;;;;;5.88;2.53;;;;;;;15.24;68.48;99413.66;255638;1104;114394;-68
2021/08/19 00:52:51;;;;;;;2.75;2.55;;;;;;;15.28;68.81;99413.92;254151;1100;114531;-67
2021/08/19 00:57:57;;;;;;;3.30;2.40;;;;;;;15.32;68.87;99412.27;255135;1104;115192;-67
2021/08/19 01:03:01;;;;;;;3.80;1.83;;;;;;;15.37;69.38;99412.26;254804;1104;115746;-68
2021/08/19 01:08:05;;;;;;;2.58;1.65;;;;;;;15.32;68.68;99417.64;256035;1104;115509;-67
2021/08/19 01:13:11;;;;;;;2.28;2.08;;;;;;;15.31;69.05;99407.98;254517;1104;116403;-67
2021/08/19 01:18:15;;;;;;;5.20;1.95;;;;;;;15.33;69.40;99417.38;254157;1104;116874;-68
2021/08/19 01:23:19;;;;;;;2.45;2.20;;;;;;;15.29;68.95;99410.93;256246;1104;116457;-68
2021/08/19 01:28:23;;;;;;;4.53;2.60;;;;;;;15.29;69.48;99410.93;254319;1099;115436;-68
2021/08/19 01:33:27;;;;;;;1.78;1.68;;;;;;;15.32;69.57;99414.95;255007;1104;117058;-68
2021/08/19 01:38:34;;;;;;;2.18;2.03;;;;;;;15.31;69.59;99414.16;255487;1104;115474;-67
2021/08/19 01:43:41;;;;;;;1.63;1.53;;;;;;;15.26;69.38;99406.14;256663;1104;116087;-66
2021/08/19 01:48:49;;;;;;;3.10;2.38;;;;;;;15.23;69.76;99408.56;255942;1104;115447;-67
2021/08/19 01:53:53;;;;;;;1.70;1.43;;;;;;;15.22;69.48;99405.07;257168;1104;115571;-68
2021/08/19 01:58:57;;;;;;;2.03;1.90;;;;;;;15.22;69.46;99410.44;257054;1104;115284;-68
2021/08/19 02:04:03;;;;;;;4.05;1.58;;;;;;;15.24;69.70;99410.17;257180;1104;117854;-68
2021/08/19 02:09:07;;;;;;;1.82;1.72;;;;;;;15.23;69.87;99408.56;257095;1104;115127;-68
2021/08/19 02:14:11;;;;;;;1.80;1.70;;;;;;;15.25;69.49;99409.90;257113;1104;116120;-68
2021/08/19 02:19:15;;;;;;;2.60;2.30;;;;;;;15.23;69.64;99421.98;257054;1104;114783;-68
2021/08/19 02:24:18;;;;;;;3.13;2.07;;;;;;;15.20;69.30;99417.16;257142;1104;116040;-68
2021/08/19 02:29:21;;;;;;;3.45;1.83;;;;;;;15.15;69.76;99410.72;256001;1104;115710;-68
2021/08/19 02:34:24;;;;;;;2.48;2.05;;;;;;;15.11;69.68;99415.02;255824;1104;115940;-67
2021/08/19 02:39:27;;;;;;;1.90;1.80;;;;;;;15.11;70.08;99412.34;256663;1104;116323;-67
2021/08/19 02:44:30;;;;;;;2.40;2.13;;;;;;;15.14;70.35;99410.98;255352;1104;115369;-67
2021/08/19 02:49:33;;;;;;;2.08;1.98;;;;;;;15.10;70.01;99410.73;255632;1098;115430;-66
2021/08/19 02:54:37;;;;;;;2.60;1.80;;;;;;;15.08;70.09;99412.08;254457;1104;115653;-66
2021/08/19 02:59:40;;;;;;;4.78;2.33;;;;;;;15.06;69.93;99416.91;254269;1104;115539;-66
2021/08/19 03:04:43;;;;;;;2.53;2.38;;;;;;;15.06;70.05;99406.17;255604;1104;115128;-67
2021/08/19 03:09:47;;;;;;;2.98;2.15;;;;;;;15.05;70.26;99404.56;254605;1099;115320;-67
2021/08/19 03:14:50;;;;;;;1.95;1.75;;;;;;;15.04;70.41;99400.27;254903;1104;114978;-67
2021/08/19 03:19:54;;;;;;;1.93;1.80;;;;;;;15.00;70.45;99407.25;254104;1098;115241;-67
2021/08/19 03:24:59;;;;;;;2.80;2.30;;;;;;;14.99;70.47;99416.38;255296;1104;115420;-67
2021/08/19 03:30:03;;;;;;;4.25;2.10;;;;;;;15.04;70.31;99416.38;254762;1104;115039;-67
2021/08/19 03:35:08;;;;;;;4.28;2.48;;;;;;;15.09;70.87;99411.80;254033;1104;114832;-67
2021/08/19 03:40:13;;;;;;;2.78;2.00;;;;;;;15.05;70.62;99405.36;254867;1104;115012;-67
2021/08/19 03:45:19;;;;;;;2.85;2.65;;;;;;;15.05;70.43;99404.56;254366;1104;114440;-68
2021/08/19 03:50:23;;;;;;;6.77;2.20;;;;;;;15.08;70.36;99398.65;256948;1104;114639;-68
2021/08/19 03:55:27;;;;;;;2.50;1.83;;;;;;;15.10;70.78;99388.45;257081;1104;114777;-67
2021/08/19 04:00:31;;;;;;;1.67;1.57;;;;;;;15.11;70.21;99390.86;257127;1104;114970;-67
2021/08/19 04:05:35;;;;;;;2.30;2.10;;;;;;;15.16;70.53;99390.05;257159;1104;115005;-68
2021/08/19 04:10:40;;;;;;;2.85;1.98;;;;;;;15.19;70.39;99396.75;257140;1104;115358;-67
2021/08/19 04:15:43;;;;;;;3.03;2.10;;;;;;;15.22;70.53;99398.89;257097;1104;114738;-67
2021/08/19 04:20:46;;;;;;;6.50;2.43;;;;;;;15.27;70.61;99402.38;257214;1104;136741;-67
2021/08/19 04:25:50;;;;;;;2.40;2.23;;;;;;;15.34;70.64;99391.31;257325;1104;116454;-67
2021/08/19 04:30:58;;;;;;;3.20;2.05;;;;;;;15.43;69.99;99395.05;255856;1104;115598;-67
2021/08/19 04:36:02;;;;;;;2.45;1.70;;;;;;;15.51;70.63;99397.18;255807;1104;116062;-67
2021/08/19 04:41:09;;;;;;;2.35;2.18;;;;;;;15.64;70.14;99385.84;254820;1104;115729;-67
2021/08/19 04:46:12;;;;;;;2.93;2.50;;;;;;;15.68;70.33;99392.28;254074;1104;116764;-67
2021/08/19 04:51:17;;;;;;;3.75;2.83;;;;;;;15.71;70.57;99397.11;254101;1104;116659;-67
2021/08/19 04:56:27;;;;;;;2.48;2.23;;;;;;;15.75;70.49;99411.60;254241;1104;116057;-68
2021/08/19 05:01:30;;;;;;;3.00;2.70;;;;;;;15.78;70.27;99405.68;255371;1098;115872;-68
2021/08/19 05:06:33;;;;;;;2.68;2.45;;;;;;;15.85;70.18;99397.31;254993;1104;115228;-68
2021/08/19 05:11:38;;;;;;;2.95;2.63;;;;;;;15.89;70.69;99398.38;254120;1104;116364;-68
2021/08/19 05:16:41;;;;;;;3.05;2.53;;;;;;;15.96;70.40;99396.16;255982;1104;115879;-67
2021/08/19 05:21:45;;;;;;;2.98;2.75;;;;;;;16.10;70.45;99393.66;254566;1104;116052;-68
2021/08/19 05:26:49;;;;;;;2.65;2.30;;;;;;;16.22;69.82;99391.41;255164;1099;115576;-68
2021/08/19 05:31:53;;;;;;;2.58;2.38;;;;;;;16.49;70.03;99396.34;255619;1104;115388;-68
2021/08/19 05:36:56;;;;;;;3.05;2.65;;;;;;;16.83;69.81;99397.13;256513;1100;115022;-68
2021/08/19 05:41:59;;;;;;;3.00;2.70;;;;;;;17.22;69.35;99393.50;255602;1104;115110;-67
2021/08/19 05:47:07;;;;;;;5.70;2.65;;;;;;;17.41;68.94;99396.27;254014;1104;114350;-68
2021/08/19 05:52:12;;;;;;;3.95;2.88;;;;;;;17.47;68.31;99408.56;253917;1104;115971;-67
2021/08/19 05:57:18;;;;;;;2.10;2.00;;;;;;;17.82;68.01;99407.34;254375;1099;117435;-68
2021/08/19 06:02:23;;;;;;;2.35;2.20;;;;;;;18.14;68.16;99393.94;255428;1104;117155;-69
2021/08/19 06:07:27;;;;;;;2.90;2.65;;;;;;;18.47;67.72;99393.98;255096;1104;115779;-69
2021/08/19 06:12:30;;;;;;;9.95;2.88;;;;;;;18.57;67.02;99395.72;254338;1104;134317;-68
2021/08/19 06:17:33;;;;;;;2.98;2.65;;;;;;;18.84;66.68;99401.21;257299;1104;114999;-67
2021/08/19 06:22:36;;;;;;;4.03;2.60;;;;;;;19.17;66.79;99408.16;257046;1104;114870;-69
2021/08/19 06:27:39;;;;;;;3.78;2.30;;;;;;;19.45;66.37;99413.58;257107;1104;115275;-69
2021/08/19 06:32:42;;;;;;;5.80;2.90;;;;;;;19.48;65.33;99407.57;257123;1104;115490;-68
2021/08/19 06:37:45;;;;;;;2.30;2.20;;;;;;;19.26;64.84;99404.77;257306;1104;115428;-68
2021/08/19 06:42:48;;;;;;;2.80;2.43;;;;;;;19.22;65.31;99412.67;254385;1100;114768;-68
2021/08/19 06:47:53;;;;;;;3.10;2.80;;;;;;;19.24;64.57;99410.48;256159;1104;114795;-68
2021/08/19 06:52:56;;;;;;;2.25;2.15;;;;;;;19.13;64.48;99412.56;253902;1098;116468;-68
2021/08/19 06:58:00;;;;;;;3.18;2.88;;;;;;;19.37;64.93;99398.05;253686;1100;117146;-69
2021/08/19 07:03:03;;;;;;;2.03;1.93;;;;;;;20.37;64.92;99388.88;253750;1099;115334;-68
2021/08/19 07:08:06;;;;;;;3.00;2.55;;;;;;;21.26;63.85;99387.15;253882;1104;115798;-68
2021/08/19 07:13:09;;;;;;;3.60;2.75;;;;;;;21.97;62.83;99401.36;253798;1104;115269;-70
2021/08/19 07:18:12;;;;;;;2.00;1.68;;;;;;;22.43;61.77;99392.59;253718;1104;115864;-70
2021/08/19 07:23:15;;;;;;;3.45;2.48;;;;;;;22.70;60.91;99392.22;255182;1104;116988;-71
2021/08/19 07:28:19;;;;;;;2.53;2.40;;;;;;;22.84;60.12;99386.63;254688;1104;116014;-70
2021/08/19 07:33:22;;;;;;;2.70;1.70;;;;;;;23.10;59.88;99400.94;253788;1104;116072;-72
2021/08/19 07:38:25;;;;;;;4.05;2.20;;;;;;;23.12;59.73;99400.61;253458;1104;115380;-69
2021/08/19 07:43:28;;;;;;;2.38;2.18;;;;;;;22.95;58.82;99403.37;253472;1104;116413;-69
2021/08/19 07:48:31;;;;;;;3.88;2.20;;;;;;;22.73;58.67;99398.93;254226;1104;116138;-69
2021/08/19 07:53:35;;;;;;;2.70;2.50;;;;;;;22.97;59.37;99392.97;254452;1098;114716;-69
2021/08/19 07:58:38;;;;;;;2.50;2.30;;;;;;;23.46;58.97;99391.50;257143;1104;115612;-70
2021/08/19 08:03:41;;;;;;;3.07;2.83;;;;;;;23.51;58.12;99391.31;257097;1104;114799;-72
2021/08/19 08:08:46;;;;;;;3.13;2.93;;;;;;;23.27;57.10;99396.53;257013;1104;115162;-69
2021/08/19 08:13:48;;;;;;;2.50;2.30;;;;;;;23.36;57.26;99402.73;257010;1104;117437;-70
2021/08/19 08:18:52;;;;;;;3.55;3.28;;;;;;;23.54;57.15;99409.73;257085;1104;115651;-69
2021/08/19 08:23:55;;;;;;;4.28;2.93;;;;;;;23.70;56.67;99404.51;257304;1104;115183;-68
2021/08/19 08:28:59;;;;;;;3.45;3.15;;;;;;;23.72;55.92;99404.98;257240;1104;115529;-68
2021/08/19 08:34:02;;;;;;;3.23;2.93;;;;;;;23.87;56.50;99404.38;257196;1104;115069;-68
2021/08/19 08:39:05;;;;;;;3.58;3.28;;;;;;;23.91;55.42;99409.97;257266;1104;117015;-67
2021/08/19 08:44:09;;;;;;;4.03;3.20;;;;;;;23.75;55.32;99415.20;257003;1104;115437;-68
2021/08/19 08:49:14;;;;;;;5.25;2.65;;;;;;;23.44;55.51;99416.30;257104;1104;115496;-67
2021/08/19 08:54:18;;;;;;;3.70;2.93;;;;;;;23.25;55.86;99429.49;255403;1104;115478;-68
2021/08/19 08:59:22;;;;;;;2.33;2.23;;;;;;;23.35;55.87;99417.46;255311;1104;114851;-67
2021/08/19 09:04:25;;;;;;;3.83;3.47;;;;;;;23.23;55.70;99430.97;257270;1104;116791;-68
2021/08/19 09:09:29;;;;;;;3.20;3.00;;;;;;;22.89;55.35;99421.00;255027;1104;115452;-69
2021/08/19 09:14:35;;;;;;;3.13;2.93;;;;;;;22.91;56.17;99411.41;253712;1104;114561;-69
2021/08/19 09:19:39;;;;;;;3.53;3.23;;;;;;;22.79;56.10;99417.50;254492;1104;114094;-69
2021/08/19 09:24:42;;;;;;;3.65;3.35;;;;;;;23.26;56.97;99427.57;253705;1104;115799;-68
2021/08/19 09:29:49;;;;;;;3.33;3.13;;;;;;;23.02;55.46;99418.06;253731;1104;115994;-68
2021/08/19 09:34:56;;;;;;;2.38;2.28;;;;;;;23.25;55.93;99417.81;255019;1104;115705;-69
2021/08/19 09:40:01;;;;;;;4.35;3.05;;;;;;;23.89;55.65;99420.39;254550;1104;115071;-69
2021/08/19 09:45:19;;;;;;;3.20;2.93;;;;;;;24.30;54.76;99414.19;254135;1104;115899;-69
2021/08/19 09:50:23;;;;;;;2.93;2.73;;;;;;;24.23;54.03;99414.69;254037;1104;115494;-69
2021/08/19 09:55:27;;;;;;;2.83;2.68;;;;;;;24.00;53.67;99416.16;254302;1100;115662;-68
2021/08/19 10:00:36;;;;;;;3.13;2.83;;;;;;;24.17;53.40;99424.98;254289;1098;115729;-68
2021/08/19 10:05:41;;;;;;;3.47;3.27;;;;;;;23.82;52.95;99426.38;254836;1104;116505;-69
2021/08/19 10:10:45;;;;;;;3.60;3.00;;;;;;;23.18;52.69;99440.10;254467;1104;116237;-70
2021/08/19 10:15:53;;;;;;;3.50;3.25;;;;;;;22.58;53.01;99442.92;254379;1104;116821;-69
2021/08/19 10:21:08;;;;;;;6.07;3.00;;;;;;;22.25;53.46;99440.69;254126;1104;116144;-69
2021/08/19 10:26:32;;;;;;;4.70;3.10;;;;;;;21.91;54.02;99438.70;254519;1104;116009;-68
2021/08/19 10:31:46;;;;;;;3.50;3.20;;;;;;;21.76;54.04;99439.94;255849;1104;115627;-68
2021/08/19 10:36:53;;;;;;;6.27;2.90;;;;;;;21.82;54.66;99432.45;254288;1104;118764;-68
2021/08/19 10:42:09;;;;;;;2.70;2.50;;;;;;;21.98;54.68;99439.04;256871;1104;117433;-68
2021/08/19 10:47:35;;;;;;;3.27;2.93;;;;;;;22.24;54.81;99436.38;256583;1104;115235;-68
2021/08/19 10:52:49;;;;;;;4.00;3.70;;;;;;;22.24;54.82;99436.38;256597;1104;117754;-68
2021/08/19 10:57:56;;;;;;;7.90;3.13;;;;;;;22.33;54.61;99433.64;254544;1099;115664;-69
2021/08/19 11:03:01;;;;;;;3.20;2.90;;;;;;;22.37;54.40;99448.98;254607;1104;115075;-69
2021/08/19 11:08:05;;;;;;;3.35;3.05;;;;;;;22.43;54.37;99441.47;254535;1104;115968;-68
2021/08/19 11:13:10;;;;;;;3.63;3.05;;;;;;;22.35;53.85;99443.06;254259;1104;118979;-68
2021/08/19 11:18:34;;;;;;;3.53;2.23;;;;;;;22.24;53.58;99441.01;254399;1104;117347;-68
2021/08/19 11:23:41;;;;;;;4.10;3.73;;;;;;;22.17;53.48;99444.19;254441;1104;115321;-68
2021/08/19 11:28:47;;;;;;;3.53;3.23;;;;;;;22.28;53.87;99445.48;254849;1104;115467;-68
2021/08/19 11:34:01;;;;;;;3.35;3.10;;;;;;;22.77;54.20;99436.01;254736;1100;115324;-67
2021/08/19 11:39:07;;;;;;;3.97;3.60;;;;;;;23.33;54.14;99447.70;254735;1099;205478;-70
2021/08/19 11:44:11;;;;;;;2.78;2.65;;;;;;;23.07;52.38;99455.95;254332;1100;115122;-70
2021/08/19 11:49:17;;;;;;;3.15;2.95;;;;;;;22.50;52.50;99458.89;254791;1104;115391;-69
2021/08/19 11:54:21;;;;;;;2.88;2.60;;;;;;;22.06;52.74;99459.98;254373;1104;115221;-69
2021/08/19 11:59:24;;;;;;;4.83;3.58;;;;;;;21.74;53.24;99461.16;254235;1104;115952;-70
2021/08/19 12:04:30;;;;;;;6.60;3.40;;;;;;;21.51;53.41;99470.50;255230;1104;116223;-68
2021/08/19 12:09:35;;;;;;;;;;;;;;;21.26;53.59;99473.91;254119;1104;117127;-69
2021/08/19 12:14:39;;;;;;;2.85;2.65;;;;;;;21.02;53.43;99479.64;256483;1104;103023;-70
2021/08/19 12:19:43;;;;;;;3.70;2.90;;;;;;;20.79;53.67;99492.41;254285;1104;115436;-68
2021/08/19 12:24:48;;;;;;;14.18;3.18;;;;;;;20.61;53.91;99486.05;255229;1104;115277;-65
2021/08/19 12:29:56;;;;;;;3.00;2.70;;;;;;;20.54;54.26;99493.79;255038;1104;115078;-69
2021/08/19 12:35:10;;;;;;;8.03;3.05;;;;;;;20.51;54.60;99492.48;255564;1104;115841;-68
2021/08/19 12:40:16;;;;;;;2.63;2.40;;;;;;;20.36;54.35;99479.28;255763;1104;115911;-68
2021/08/19 12:45:24;;;;;;;2.87;2.67;;;;;;;20.25;54.74;99493.34;256531;1104;114868;-66
2021/08/19 12:50:27;;;;;;;3.15;2.95;;;;;;;20.22;54.91;99494.75;255132;1104;116297;-67
2021/08/19 12:55:30;;;;;;;4.10;3.65;;;;;;;20.30;55.17;99493.23;256988;1104;116527;-68
2021/08/19 13:00:35;;;;;;;3.23;2.93;;;;;;;20.46;55.38;99489.92;255948;1104;116281;-68
2021/08/19 13:05:39;;;;;;;2.93;2.68;;;;;;;20.61;55.45;99475.22;256467;1103;116479;-67
2021/08/19 13:10:43;;;;;;;4.88;3.18;;;;;;;20.79;55.81;99476.16;254471;1104;115394;-67
2021/08/19 13:15:47;;;;;;;3.18;2.98;;;;;;;21.05;55.53;99479.83;254583;1104;115817;-68
2021/08/19 13:20:50;;;;;;;3.70;3.40;;;;;;;21.35;55.70;99475.55;254258;1104;115547;-68
2021/08/19 13:25:55;;;;;;;3.40;3.20;;;;;;;21.75;55.32;99475.52;254457;1104;115349;-68
2021/08/19 13:30:58;;;;;;;3.27;3.00;;;;;;;22.21;55.12;99464.16;254401;1104;116100;-67
2021/08/19 13:36:02;;;;;;;3.55;3.33;;;;;;;22.55;54.52;99454.42;255144;1104;115508;-65
2021/08/19 13:41:06;;;;;;;7.00;3.35;;;;;;;22.65;53.79;99459.51;254187;1104;116025;-68
2021/08/19 13:46:10;;;;;;;4.05;3.58;;;;;;;22.38;53.51;99450.58;254543;1100;117280;-67
2021/08/19 13:51:14;;;;;;;3.65;3.35;;;;;;;22.46;53.71;99462.56;254426;1104;115405;-69
2021/08/19 13:56:17;;;;;;;3.50;3.30;;;;;;;22.41;53.21;99470.87;254296;1104;115939;-68
2021/08/19 14:01:22;;;;;;;3.70;3.35;;;;;;;22.24;53.24;99460.02;254376;1104;116754;-67
2021/08/19 14:06:27;;;;;;;3.48;3.20;;;;;;;22.20;53.41;99470.70;255318;1104;116215;-68
2021/08/19 14:11:30;;;;;;;4.30;3.95;;;;;;;22.08;53.21;99468.60;254165;1104;116294;-68
2021/08/19 14:16:38;;;;;;;4.25;3.83;;;;;;;22.10;53.38;99466.38;254082;1100;116439;-67
2021/08/19 14:21:41;;;;;;;3.63;3.28;;;;;;;22.22;53.76;99468.47;254025;1098;115989;-67
2021/08/19 14:26:44;;;;;;;3.45;3.15;;;;;;;22.11;53.43;99475.31;254226;1104;115107;-68
2021/08/19 14:31:48;;;;;;;6.95;3.43;;;;;;;22.09;53.40;99469.41;254231;1104;115825;-69
2021/08/19 14:36:54;;;;;;;3.73;3.43;;;;;;;22.02;53.07;99479.92;256471;1104;115603;-68
2021/08/19 14:41:58;;;;;;;8.70;3.77;;;;;;;21.91;53.26;99468.55;257058;1104;116049;-68
2021/08/19 14:47:02;;;;;;;3.00;2.60;;;;;;;21.90;53.37;99477.81;256411;1104;115037;-68
2021/08/19 14:52:07;;;;;;;3.45;3.20;;;;;;;21.93;53.73;99476.38;256167;1104;116133;-68
2021/08/19 14:57:12;;;;;;;3.63;3.23;;;;;;;21.84;53.57;99484.49;257137;1104;115318;-69
2021/08/19 15:02:15;;;;;;;9.47;3.43;;;;;;;21.71;53.59;99479.97;255472;1098;114870;-68
2021/08/19 15:07:19;;;;;;;3.65;3.35;;;;;;;21.75;53.56;99480.95;254220;1099;114974;-67
2021/08/19 15:12:22;;;;;;;4.35;3.95;;;;;;;21.64;53.47;99480.45;254439;1104;115076;-68
2021/08/19 15:17:26;;;;;;;4.33;3.90;;;;;;;21.47;53.46;99491.22;256164;1104;117029;-68
2021/08/19 15:22:33;;;;;;;4.80;4.13;;;;;;;21.29;53.50;99489.55;254288;1104;116325;-69
2021/08/19 15:27:37;;;;;;;7.45;4.73;;;;;;;21.11;54.04;99507.58;254737;1104;118018;-70
2021/08/19 15:32:41;;;;;;;4.67;4.27;;;;;;;21.04;54.32;99499.91;254159;1104;195605;-69
2021/08/19 15:37:44;;;;;;;5.73;3.87;;;;;;;20.89;54.45;99523.85;255648;1104;115069;-69
2021/08/19 15:42:48;;;;;;;3.60;3.30;;;;;;;20.76;54.20;99526.33;255633;1104;115189;-68
2021/08/19 15:47:53;;;;;;;5.33;4.05;;;;;;;20.64;54.68;99522.55;254324;1104;115666;-69
2021/08/19 15:52:57;;;;;;;4.27;3.87;;;;;;;20.59;54.89;99525.38;254424;1100;116107;-69
2021/08/19 15:58:00;;;;;;;7.65;5.13;;;;;;;20.59;55.19;99528.08;254355;1104;115315;-68
2021/08/19 16:03:02;;;;;;;4.87;4.23;;;;;;;20.60;55.24;99529.68;254349;1104;116578;-69
2021/08/19 16:08:06;;;;;;;5.00;4.50;;;;;;;20.64;55.57;99528.77;254740;1104;118590;-68
2021/08/19 16:13:10;;;;;;;4.55;4.13;;;;;;;20.66;55.29;99526.56;254532;1104;114794;-70
2021/08/19 16:18:13;;;;;;;5.70;5.13;;;;;;;20.68;55.45;99535.18;254745;1099;115590;-69
2021/08/19 16:23:17;;;;;;;4.65;4.15;;;;;;;20.65;55.57;99534.98;254130;1104;115265;-69
2021/08/19 16:28:21;;;;;;;9.55;5.23;;;;;;;20.62;56.00;99541.81;254004;1104;117985;-69
2021/08/19 16:33:25;;;;;;;4.85;4.45;;;;;;;20.55;55.92;99540.63;254056;1104;115046;-68
2021/08/19 16:38:28;;;;;;;8.15;5.20;;;;;;;20.48;56.20;99541.84;254332;1104;115321;-67
2021/08/19 16:43:33;;;;;;;5.00;4.63;;;;;;;20.44;56.16;99545.48;254087;1104;115063;-68
2021/08/19 16:48:36;;;;;;;7.97;5.17;;;;;;;20.35;56.15;99552.68;255203;1103;114913;-69
2021/08/19 16:53:39;;;;;;;4.58;4.28;;;;;;;20.29;56.19;99556.59;257258;1104;115832;-68
2021/08/19 16:58:41;;;;;;;5.35;3.88;;;;;;;20.21;55.79;99562.71;254445;1104;115279;-69
2021/08/19 17:03:44;;;;;;;4.00;3.60;;;;;;;20.17;56.27;99567.95;254737;1104;115347;-69
2021/08/19 17:08:48;;;;;;;5.35;4.85;;;;;;;20.09;56.32;99563.23;256815;1104;115173;-70
2021/08/19 17:13:52;;;;;;;4.93;4.53;;;;;;;20.01;56.47;99558.52;254937;1104;121041;-70
2021/08/19 17:18:56;;;;;;;5.23;4.73;;;;;;;19.93;56.96;99567.33;254238;1099;115605;-70
2021/08/19 17:24:00;;;;;;;4.90;4.50;;;;;;;19.84;56.87;99570.76;254399;1104;115097;-69
2021/08/19 17:29:04;;;;;;;5.25;4.75;;;;;;;19.76;57.07;99568.73;254178;1104;114829;-70
2021/08/19 17:34:07;;;;;;;4.50;4.08;;;;;;;19.65;57.23;99570.02;254070;1104;115379;-69
2021/08/19 17:39:11;;;;;;;5.75;4.55;;;;;;;19.56;57.42;99566.42;254139;1104;114846;-68
2021/08/19 17:44:14;;;;;;;6.73;4.65;;;;;;;19.48;57.51;99573.27;254181;1104;116393;-68
2021/08/19 17:49:17;;;;;;;4.63;4.23;;;;;;;19.37;57.71;99573.73;254123;1104;115289;-68
2021/08/19 17:54:21;;;;;;;8.63;6.13;;;;;;;19.25;58.13;99574.22;254337;1104;114719;-69
2021/08/19 17:59:25;;;;;;;7.53;4.63;;;;;;;19.16;58.41;99571.38;254416;1104;115202;-70
2021/08/19 18:04:29;;;;;;;5.50;4.90;;;;;;;19.09;58.56;99584.46;254313;1100;115514;-69
2021/08/19 18:09:32;;;;;;;6.18;4.95;;;;;;;19.01;58.82;99585.13;254240;1104;115682;-69
2021/08/19 18:14:35;;;;;;;5.03;4.53;;;;;;;18.97;58.70;99591.40;254620;1104;207304;-69
2021/08/19 18:19:38;;;;;;;6.63;5.63;;;;;;;18.93;59.29;99595.81;254255;1104;117231;-68
2021/08/19 18:24:42;;;;;;;5.55;5.10;;;;;;;18.92;59.76;99596.91;254034;1104;116359;-69
2021/08/19 18:29:46;;;;;;;5.27;4.87;;;;;;;18.90;59.72;99602.59;254223;1104;116320;-68
2021/08/19 18:34:50;;;;;;;9.13;4.43;;;;;;;18.84;60.16;99595.66;255339;1104;116465;-69
2021/08/19 18:39:56;;;;;;;6.45;5.13;;;;;;;18.79;60.48;99609.23;253973;1104;116460;-69
2021/08/19 18:44:59;;;;;;;5.23;4.73;;;;;;;18.73;61.11;99610.39;257067;1104;116618;-68
2021/08/19 18:50:04;;;;;;;7.30;5.05;;;;;;;18.71;61.22;99605.28;257125;1104;117460;-69
2021/08/19 18:55:07;;;;;;;5.33;4.93;;;;;;;18.66;61.59;99615.34;257090;1104;115706;-68
2021/08/19 19:00:11;;;;;;;5.23;4.83;;;;;;;18.65;61.63;99619.16;257052;1104;116209;-69
2021/08/19 19:05:15;;;;;;;5.60;5.10;;;;;;;18.70;61.91;99625.27;256818;1104;115351;-69
2021/08/19 19:10:17;;;;;;;5.00;4.55;;;;;;;18.73;62.18;99629.29;253550;1104;116673;-69
2021/08/19 19:15:25;;;;;;;6.70;4.33;;;;;;;18.71;62.02;99637.68;253737;1104;115702;-68
2021/08/19 19:20:28;;;;;;;7.28;4.63;;;;;;;18.75;62.30;99648.70;257080;1104;116565;-68
2021/08/19 19:25:31;;;;;;;6.50;4.53;;;;;;;18.75;62.40;99656.80;256155;1104;115729;-67
2021/08/19 19:30:34;;;;;;;7.05;6.30;;;;;;;18.68;62.37;99659.05;253938;1104;115764;-68
2021/08/19 19:35:38;;;;;;;6.10;5.57;;;;;;;18.59;62.83;99649.98;253870;1104;115156;-68
2021/08/19 19:40:42;;;;;;;9.00;4.83;;;;;;;18.54;63.22;99652.73;253643;1104;114920;-68
2021/08/19 19:45:45;;;;;;;5.30;4.67;;;;;;;18.46;63.27;99657.67;253737;1104;115444;-66
2021/08/19 19:50:49;;;;;;;7.10;5.80;;;;;;;18.46;63.64;99657.67;255008;1104;114786;-69
2021/08/19 19:55:55;;;;;;;7.55;4.60;;;;;;;18.40;63.57;99656.13;253784;1104;115269;-68
2021/08/19 20:01:03;;;;;;;5.93;4.90;;;;;;;18.37;63.97;99656.70;253674;1104;213720;-69
2021/08/19 20:06:08;;;;;;;4.50;4.05;;;;;;;18.31;63.82;99654.37;254393;1104;114731;-69
2021/08/19 20:11:13;;;;;;;4.83;4.43;;;;;;;18.21;64.33;99660.67;253723;1098;115470;-69
2021/08/19 20:16:17;;;;;;;6.05;5.55;;;;;;;18.18;64.63;99662.05;256061;1104;114833;-68
2021/08/19 20:21:23;;;;;;;10.08;5.48;;;;;;;18.15;64.79;99667.20;255421;1104;115214;-69
2021/08/19 20:26:29;;;;;;;7.97;5.93;;;;;;;18.17;64.88;99665.83;253705;1104;115774;-68
2021/08/19 20:31:33;;;;;;;4.68;4.28;;;;;;;18.17;65.08;99667.73;253566;1104;115150;-69
2021/08/19 20:36:36;;;;;;;5.13;4.67;;;;;;;18.12;65.37;99657.79;253883;1104;115158;-68
2021/08/19 20:41:39;;;;;;;5.33;4.75;;;;;;;18.10;65.66;99661.86;254046;1104;115106;-68
2021/08/19 20:46:43;;;;;;;5.38;4.88;;;;;;;18.07;65.69;99667.83;254437;1104;114394;-66
2021/08/19 20:51:47;;;;;;;5.33;4.78;;;;;;;18.01;65.64;99671.69;253684;1104;115205;-68
2021/08/19 20:56:55;;;;;;;5.35;4.88;;;;;;;17.90;65.88;99668.27;253663;1100;114948;-68
2021/08/19 21:01:58;;;;;;;5.63;4.70;;;;;;;17.80;66.14;99679.95;253864;1104;114973;-68
2021/08/19 21:07:01;;;;;;;6.58;6.05;;;;;;;17.64;65.93;99689.23;253846;1104;116144;-69
2021/08/19 21:12:05;;;;;;;7.23;5.33;;;;;;;17.51;66.19;99692.56;255531;1104;115444;-69
2021/08/19 21:17:08;;;;;;;5.43;4.90;;;;;;;17.47;66.20;99691.52;257119;1104;116323;-68
2021/08/19 21:22:11;;;;;;;11.43;6.10;;;;;;;17.38;66.50;99698.61;255968;1103;114613;-68
2021/08/19 21:27:15;;;;;;;5.97;5.37;;;;;;;17.28;66.56;99704.05;253706;1103;114894;-69
2021/08/19 21:32:25;;;;;;;8.17;6.13;;;;;;;17.18;66.87;99705.72;254246;1104;114631;-70
2021/08/19 21:37:29;;;;;;;6.03;5.43;;;;;;;17.10;66.68;99706.33;253687;1104;115001;-68
2021/08/19 21:42:32;;;;;;;6.10;5.60;;;;;;;17.02;67.00;99714.98;254154;1104;114645;-69
2021/08/19 21:47:36;;;;;;;6.13;5.40;;;;;;;16.95;67.08;99717.16;254056;1098;114681;-67
2021/08/19 21:52:40;;;;;;;6.03;5.53;;;;;;;16.85;67.02;99722.59;254010;1104;208012;-69
2021/08/19 21:57:46;;;;;;;5.68;5.10;;;;;;;16.69;66.88;99719.16;254419;1099;114567;-68
2021/08/19 22:02:50;;;;;;;9.00;5.58;;;;;;;16.55;67.22;99719.98;253732;1104;115632;-70
2021/08/19 22:07:54;;;;;;;7.63;6.10;;;;;;;16.38;67.42;99723.81;255355;1104;115166;-69
2021/08/19 22:12:57;;;;;;;7.58;5.18;;;;;;;16.24;67.92;99717.38;253808;1104;116453;-69
2021/08/19 22:18:01;;;;;;;12.55;6.73;;;;;;;16.17;67.96;99719.56;253954;1104;115785;-68
2021/08/19 22:23:05;;;;;;;11.47;6.50;;;;;;;16.16;68.21;99716.06;253847;1103;118714;-68
2021/08/19 22:28:08;;;;;;;7.10;5.68;;;;;;;16.13;68.20;99723.87;253669;1104;116220;-67
2021/08/19 22:33:12;;;;;;;8.48;6.38;;;;;;;16.05;68.36;99719.03;254542;1104;115109;-68
2021/08/19 22:38:15;;;;;;;7.28;6.58;;;;;;;15.95;68.44;99717.14;253791;1104;116003;-68
2021/08/19 22:43:19;;;;;;;7.20;6.50;;;;;;;15.90;68.54;99719.83;253833;1099;118522;-67
2021/08/19 22:48:22;;;;;;;7.50;6.80;;;;;;;15.81;68.54;99722.28;253903;1098;123115;-66
2021/08/19 22:53:25;;;;;;;8.95;7.10;;;;;;;15.65;68.97;99728.70;256317;1104;115953;-68
2021/08/19 22:58:28;;;;;;;9.60;7.57;;;;;;;15.54;69.00;99727.08;257184;1104;116682;-68
2021/08/19 23:03:32;;;;;;;8.43;6.57;;;;;;;15.41;69.04;99725.70;257257;1104;115198;-67
2021/08/19 23:08:36;;;;;;;6.35;5.73;;;;;;;15.37;69.58;99734.56;257165;1104;115788;-69
2021/08/19 23:13:41;;;;;;;7.25;6.55;;;;;;;15.36;69.26;99738.31;254055;1104;115417;-68
2021/08/19 23:18:46;;;;;;;8.10;7.15;;;;;;;15.28;69.54;99749.59;253869;1104;114698;-67